createdAt,value
2019-04-26T00:01:23.689Z,1.33
2019-04-26T00:03:54.080Z,1.40
2019-04-26T00:06:24.988Z,1.50
2019-04-26T00:09:01.862Z,1.80
2019-04-26T00:11:41.567Z,1.33
2019-04-26T00:14:29.186Z,1.47
2019-04-26T00:17:01.327Z,1.40
2019-04-26T00:19:29.504Z,1.57
2019-04-26T00:21:59.455Z,1.43
2019-04-26T00:24:30.285Z,1.83
2019-04-26T00:26:58.099Z,1.57
2019-04-26T00:29:28.213Z,1.47
2019-04-26T00:31:56.313Z,1.53
2019-04-26T00:34:24.284Z,1.70
2019-04-26T00:36:54.407Z,1.80
2019-04-26T00:39:24.158Z,1.50
2019-04-26T00:41:52.128Z,1.27
2019-04-26T00:44:20.911Z,1.50
2019-04-26T00:46:52.751Z,1.60
2019-04-26T00:49:23.258Z,1.53
2019-04-26T00:51:54.328Z,1.40
2019-04-26T00:54:24.310Z,1.37
2019-04-26T00:56:53.742Z,1.53
2019-04-26T00:59:25.100Z,1.60
2019-04-26T01:01:57.703Z,1.30
2019-04-26T01:04:25.383Z,1.30
2019-04-26T01:06:56.179Z,1.20
2019-04-26T01:09:25.687Z,1.40
2019-04-26T01:11:54.887Z,1.57
2019-04-26T01:14:24.080Z,1.40
2019-04-26T01:16:52.833Z,1.60
2019-04-26T01:19:23.094Z,1.30
2019-04-26T01:21:57.986Z,1.50
2019-04-26T01:24:28.931Z,1.40
2019-04-26T01:27:01.812Z,1.63
2019-04-26T01:29:31.125Z,1.30
2019-04-26T01:32:29.173Z,1.17
2019-04-26T01:35:03.140Z,1.40
2019-04-26T01:37:35.585Z,1.40
2019-04-26T01:40:08.628Z,1.50
2019-04-26T01:43:13.729Z,1.33
2019-04-26T01:46:40.366Z,2.10
2019-04-26T01:49:10.898Z,1.53
2019-04-26T01:51:44.213Z,1.50
2019-04-26T01:54:15.319Z,1.73
2019-04-26T01:56:44.942Z,1.83
2019-04-26T01:59:16.598Z,1.50
2019-04-26T02:02:20.041Z,1.43
2019-04-26T02:04:58.514Z,1.50
2019-04-26T02:07:37.786Z,1.87
2019-04-26T02:10:08.913Z,1.90
2019-04-26T02:12:40.158Z,1.77
2019-04-26T02:15:10.466Z,2.00
2019-04-26T02:17:40.159Z,1.73
2019-04-26T02:20:08.835Z,1.73
2019-04-26T02:23:01.512Z,2.00
2019-04-26T02:25:32.002Z,2.17
2019-04-26T02:28:00.243Z,2.47
2019-04-26T02:30:31.236Z,2.83
2019-04-26T02:33:00.191Z,2.10
2019-04-26T02:35:32.176Z,2.27
2019-04-26T02:38:02.010Z,2.00
2019-04-26T02:40:31.682Z,2.10
2019-04-26T02:43:00.157Z,1.97
2019-04-26T02:46:11.388Z,2.00
2019-04-26T02:49:04.308Z,1.90
2019-04-26T02:51:36.925Z,2.03
2019-04-26T02:54:18.289Z,2.10
2019-04-26T02:56:51.105Z,2.00
2019-04-26T02:59:47.743Z,2.00
2019-04-26T03:02:25.696Z,1.70
2019-04-26T03:05:00.356Z,1.60
2019-04-26T03:07:57.700Z,2.10
2019-04-26T03:10:50.691Z,1.63
2019-04-26T03:13:43.719Z,1.70
2019-04-26T03:16:43.072Z,1.53
2019-04-26T03:19:25.637Z,2.00
2019-04-26T03:22:28.557Z,2.10
2019-04-26T03:25:08.505Z,1.80
2019-04-26T03:28:03.304Z,1.73
2019-04-26T03:31:02.442Z,1.80
2019-04-26T03:34:11.321Z,1.50
2019-04-26T03:37:40.448Z,1.90
2019-04-26T03:40:38.987Z,1.60
2019-04-26T03:43:40.707Z,1.80
2019-04-26T03:46:30.875Z,1.60
2019-04-26T03:49:57.647Z,1.80
2019-04-26T04:00:47.108Z,1.80
2019-04-26T04:03:43.945Z,1.80
2019-04-26T04:06:19.450Z,1.70
2019-04-26T04:08:54.427Z,2.23
2019-04-26T04:11:37.836Z,1.50
2019-04-26T04:14:12.208Z,2.27
2019-04-26T04:17:27.791Z,2.53
2019-04-26T04:20:42.595Z,2.30
2019-04-26T04:24:05.368Z,2.30
2019-04-26T04:27:10.292Z,1.93
2019-04-26T04:30:09.486Z,2.03
2019-04-26T04:33:21.320Z,2.20
2019-04-26T04:35:53.649Z,2.30
2019-04-26T04:39:11.004Z,1.70
2019-04-26T04:41:41.115Z,1.83
2019-04-26T04:44:25.724Z,1.70
2019-04-26T04:47:48.120Z,2.03
2019-04-26T04:51:07.037Z,1.70
2019-04-26T04:55:04.406Z,1.70
2019-04-26T04:58:04.513Z,2.60
2019-04-26T05:01:20.786Z,2.03
2019-04-26T05:04:04.318Z,1.80
2019-04-26T05:06:49.443Z,1.97
2019-04-26T05:09:28.173Z,2.23
2019-04-26T05:12:26.523Z,2.10
2019-04-26T05:18:02.380Z,2.00
2019-04-26T05:24:53.530Z,2.50
2019-04-26T05:28:14.199Z,2.40
2019-04-26T05:31:23.619Z,2.03
2019-04-26T05:34:11.740Z,2.13
2019-04-26T05:37:06.489Z,2.10
2019-04-26T05:39:55.978Z,2.13
2019-04-26T05:43:36.830Z,2.00
2019-04-26T05:47:00.983Z,2.47
2019-04-26T05:50:19.300Z,2.40
2019-04-26T05:53:57.169Z,2.70
2019-04-26T05:56:56.314Z,2.83
2019-04-26T06:00:28.114Z,2.97
2019-04-26T06:03:32.356Z,2.93
2019-04-26T06:06:28.384Z,2.57
2019-04-26T06:09:39.955Z,2.80
2019-04-26T06:12:41.292Z,2.67
2019-04-26T06:15:33.466Z,2.30
2019-04-26T06:18:36.800Z,2.47
2019-04-26T06:21:38.416Z,2.70
2019-04-26T06:24:41.878Z,2.57
2019-04-26T06:31:14.668Z,2.40
2019-04-26T06:34:25.748Z,2.77
2019-04-26T06:37:15.720Z,2.80
2019-04-26T06:40:02.210Z,2.40
2019-04-26T06:43:12.222Z,2.30
2019-04-26T06:46:23.311Z,2.57
2019-04-26T06:49:52.327Z,2.60
2019-04-26T06:52:24.380Z,3.20
2019-04-26T06:55:04.970Z,3.00
2019-04-26T06:59:10.242Z,3.27
2019-04-26T07:09:52.781Z,2.37
2019-04-26T07:12:42.593Z,2.70
2019-04-26T07:15:52.063Z,3.07
2019-04-26T07:19:03.418Z,2.90
2019-04-26T07:22:19.618Z,3.03
2019-04-26T07:25:39.092Z,2.70
2019-04-26T07:28:31.871Z,3.33
2019-04-26T07:32:03.032Z,2.77
2019-04-26T07:39:48.239Z,2.70
2019-04-26T07:43:06.035Z,2.60
2019-04-26T07:50:31.686Z,2.33
2019-04-26T07:56:59.133Z,2.80
2019-04-26T08:00:22.709Z,3.17
2019-04-26T08:03:28.912Z,2.90
2019-04-26T08:06:49.624Z,2.87
2019-04-26T08:09:59.806Z,3.20
2019-04-26T08:12:24.591Z,2.80
2019-04-26T08:15:33.627Z,3.00
2019-04-26T08:18:23.511Z,3.60
2019-04-26T08:21:19.523Z,4.00
2019-04-26T08:24:51.031Z,3.00
2019-04-26T08:27:29.617Z,3.33
2019-04-26T08:30:10.243Z,3.20
2019-04-26T08:32:41.485Z,6.63
2019-04-26T08:39:05.948Z,2.83
2019-04-26T08:42:21.039Z,3.33
2019-04-26T08:45:10.337Z,3.70
2019-04-26T08:48:10.411Z,3.40
2019-04-26T08:50:54.057Z,3.60
2019-04-26T08:53:24.215Z,4.63
2019-04-26T08:55:57.684Z,3.87
2019-04-26T08:58:30.027Z,3.70
2019-04-26T09:01:23.556Z,3.50
2019-04-26T09:07:58.883Z,3.63
2019-04-26T09:10:43.102Z,3.93
2019-04-26T09:13:25.384Z,3.67
2019-04-26T09:16:17.075Z,3.30
2019-04-26T09:19:03.141Z,3.73
2019-04-26T09:21:42.659Z,3.70
2019-04-26T09:24:38.640Z,3.67
2019-04-26T09:28:04.225Z,3.83
2019-04-26T09:30:47.625Z,3.53
2019-04-26T09:33:22.351Z,3.90
2019-04-26T09:35:56.805Z,3.73
2019-04-26T09:38:34.853Z,4.10
2019-04-26T09:41:18.101Z,4.07
2019-04-26T09:44:56.882Z,3.80
2019-04-26T09:47:47.035Z,4.00
2019-04-26T09:50:50.136Z,4.30
2019-04-26T09:54:00.529Z,4.20
2019-04-26T09:57:13.391Z,4.40
2019-04-26T10:00:04.247Z,4.23
2019-04-26T10:06:21.156Z,8.77
2019-04-26T10:09:21.180Z,4.60
2019-04-26T10:11:55.843Z,4.83
2019-04-26T10:15:03.204Z,4.50
2019-04-26T10:20:51.214Z,4.40
2019-04-26T10:24:09.024Z,4.97
2019-04-26T10:27:12.530Z,4.47
2019-04-26T10:30:07.611Z,4.87
2019-04-26T10:32:37.610Z,4.27
2019-04-26T10:39:15.422Z,4.53
2019-04-26T10:42:14.038Z,4.37
2019-04-26T10:45:41.352Z,4.73
2019-04-26T10:59:57.125Z,4.90
2019-04-26T11:03:35.070Z,4.30
2019-04-26T11:06:16.731Z,4.80
2019-04-26T11:09:23.196Z,4.37
2019-04-26T11:11:41.432Z,4.67
2019-04-26T11:14:28.821Z,3.93
2019-04-26T11:17:02.674Z,4.50
2019-04-26T11:19:49.256Z,3.87
2019-04-26T11:22:28.573Z,4.37
2019-04-26T11:24:50.143Z,4.37
2019-04-26T11:27:20.184Z,4.57
2019-04-26T11:29:54.805Z,4.67
2019-04-26T11:32:33.142Z,4.57
2019-04-26T11:35:51.920Z,5.40
2019-04-26T11:38:26.823Z,4.97
2019-04-26T11:41:06.008Z,4.13
2019-04-26T11:43:23.604Z,3.87
2019-04-26T11:46:45.040Z,3.90
2019-04-26T11:52:48.841Z,3.20
2019-04-26T11:55:18.914Z,3.37
2019-04-26T11:57:50.048Z,3.60
2019-04-26T12:00:30.179Z,3.00
2019-04-26T12:09:29.256Z,3.47
2019-04-26T12:12:16.986Z,3.03
2019-04-26T12:19:52.287Z,3.33
2019-04-26T12:22:28.270Z,3.60
2019-04-26T12:25:07.268Z,4.10
2019-04-26T12:27:34.843Z,3.60
2019-04-26T12:30:12.562Z,4.40
2019-04-26T12:32:41.796Z,3.23
2019-04-26T12:35:11.257Z,3.87
2019-04-26T12:37:43.087Z,3.53
2019-04-26T12:40:26.721Z,3.67
2019-04-26T12:42:59.395Z,3.10
2019-04-26T12:45:47.417Z,3.17
2019-04-26T12:48:18.811Z,3.70
2019-04-26T12:50:58.720Z,3.57
2019-04-26T12:53:31.495Z,3.70
2019-04-26T12:55:59.189Z,3.90
2019-04-26T12:58:31.725Z,3.93
2019-04-26T13:01:08.006Z,3.87
2019-04-26T13:03:40.771Z,4.90
2019-04-26T13:06:11.210Z,4.20
2019-04-26T13:08:40.929Z,4.10
2019-04-26T13:11:48.747Z,4.40
2019-04-26T13:14:58.045Z,4.60
2019-04-26T13:17:38.527Z,4.43
2019-04-26T13:20:07.687Z,4.90
2019-04-26T13:22:46.024Z,4.03
2019-04-26T13:25:15.422Z,3.60
2019-04-26T13:28:21.818Z,3.90
2019-04-26T13:31:06.672Z,3.90
2019-04-26T13:34:05.229Z,5.20
2019-04-26T13:37:16.096Z,4.87
2019-04-26T13:39:51.374Z,5.07
2019-04-26T13:47:37.284Z,5.03
2019-04-26T13:50:37.997Z,5.60
2019-04-26T13:56:49.879Z,4.60
2019-04-26T14:03:34.306Z,5.00
2019-04-26T14:06:01.971Z,4.80
2019-04-26T14:13:24.946Z,4.90
2019-04-26T14:20:05.361Z,4.90
2019-04-26T14:23:33.627Z,5.27
2019-04-26T14:26:45.906Z,5.70
2019-04-26T14:29:32.521Z,5.77
2019-04-26T14:36:18.395Z,5.60
2019-04-26T14:43:23.801Z,5.23
2019-04-26T14:45:56.401Z,5.43
2019-04-26T14:48:35.798Z,5.50
2019-04-26T14:51:22.450Z,5.10
2019-04-26T14:54:07.307Z,5.23
2019-04-26T14:56:35.425Z,5.30
2019-04-26T15:03:51.523Z,4.70
2019-04-26T15:06:25.795Z,5.00
2019-04-26T15:08:53.838Z,5.27
2019-04-26T15:11:26.303Z,6.00
2019-04-26T15:21:14.750Z,5.50
2019-04-26T15:23:44.471Z,6.27
2019-04-26T15:26:18.453Z,6.33
2019-04-26T15:28:50.467Z,5.27
2019-04-26T15:31:53.667Z,5.70
2019-04-26T15:34:58.568Z,6.93
2019-04-26T15:37:42.231Z,5.50
2019-04-26T15:44:15.760Z,5.27
2019-04-26T15:47:29.690Z,8.83
2019-04-26T15:50:13.047Z,5.73
2019-04-26T15:53:14.766Z,5.40
2019-04-26T15:56:22.278Z,5.80
2019-04-26T16:10:12.161Z,4.90
2019-04-26T16:12:40.129Z,4.60
2019-04-26T16:15:17.597Z,5.20
2019-04-26T16:28:22.836Z,5.63
2019-04-26T16:31:32.214Z,5.60
2019-04-26T16:34:10.876Z,5.83
2019-04-26T16:36:47.670Z,6.50
2019-04-26T16:39:18.923Z,6.97
2019-04-26T16:41:51.874Z,8.27
2019-04-26T16:44:29.976Z,6.17
2019-04-26T16:47:29.292Z,6.47
2019-04-26T16:50:02.041Z,6.50
2019-04-26T16:52:30.220Z,5.50
2019-04-26T16:55:04.345Z,6.00
2019-04-26T16:57:54.752Z,5.60
2019-04-26T17:00:51.719Z,6.43
2019-04-26T17:03:11.821Z,6.60
2019-04-26T17:09:55.723Z,7.10
2019-04-26T17:12:30.837Z,6.97
2019-04-26T17:15:10.761Z,6.93
2019-04-26T17:18:23.909Z,6.17
2019-04-26T17:21:05.127Z,5.17
2019-04-26T17:27:36.140Z,6.30
2019-04-26T17:30:44.458Z,6.60
2019-04-26T17:33:27.782Z,6.43
2019-04-26T17:35:51.720Z,6.17
2019-04-26T17:38:20.728Z,7.03
2019-04-26T17:40:58.695Z,6.60
2019-04-26T17:43:21.239Z,6.27
2019-04-26T17:45:54.240Z,6.77
2019-04-26T17:48:27.116Z,7.47
2019-04-26T17:50:57.695Z,7.50
2019-04-26T17:53:33.196Z,7.13
2019-04-26T17:56:00.571Z,7.53
2019-04-26T17:58:33.613Z,7.40
2019-04-26T18:01:03.935Z,7.70
2019-04-26T18:03:33.398Z,7.27
2019-04-26T18:06:09.487Z,9.47
2019-04-26T18:08:45.441Z,8.27
2019-04-26T18:11:32.964Z,8.37
2019-04-26T18:14:02.867Z,8.83
2019-04-26T18:16:37.871Z,8.77
2019-04-26T18:19:31.890Z,9.73
2019-04-26T18:22:35.223Z,12.07
2019-04-26T18:25:32.078Z,9.63
2019-04-26T18:28:01.931Z,9.90
2019-04-26T18:30:35.138Z,9.13
2019-04-26T18:33:21.710Z,9.80
2019-04-26T18:35:57.781Z,9.37
2019-04-26T18:38:28.607Z,9.23
2019-04-26T18:41:03.544Z,9.07
2019-04-26T18:43:49.383Z,9.43
2019-04-26T18:46:28.226Z,8.97
2019-04-26T18:49:18.900Z,9.80
2019-04-26T18:51:48.500Z,9.60
2019-04-26T18:54:24.050Z,10.13
2019-04-26T18:57:03.426Z,9.33
2019-04-26T18:59:52.852Z,10.00
2019-04-26T19:02:27.666Z,9.20
2019-04-26T19:04:56.707Z,8.97
2019-04-26T19:11:00.740Z,9.83
2019-04-26T19:13:58.636Z,9.03
2019-04-26T19:16:50.217Z,10.20
2019-04-26T19:19:55.239Z,9.93
2019-04-26T19:23:03.322Z,9.30
2019-04-26T19:28:29.828Z,10.47
2019-04-26T19:31:03.748Z,11.23
2019-04-26T19:34:19.446Z,10.50
2019-04-26T19:37:09.383Z,11.53
2019-04-26T19:39:42.691Z,11.87
2019-04-26T19:42:13.209Z,11.40
2019-04-26T19:45:11.747Z,11.23
2019-04-26T19:47:56.610Z,11.03
2019-04-26T19:50:50.494Z,11.80
2019-04-26T19:53:36.369Z,12.13
2019-04-26T19:56:17.306Z,11.03
2019-04-26T19:58:57.518Z,11.33
2019-04-26T20:01:41.959Z,11.90
2019-04-26T20:04:17.786Z,11.27
2019-04-26T20:06:52.441Z,11.80
2019-04-26T20:12:38.155Z,11.53
2019-04-26T20:15:25.885Z,11.03
2019-04-26T20:18:00.286Z,11.40
2019-04-26T20:20:34.670Z,11.53
2019-04-26T20:23:22.936Z,11.27
2019-04-26T20:25:53.061Z,12.17
2019-04-26T20:28:53.135Z,12.77
2019-04-26T20:32:07.534Z,12.43
2019-04-26T20:35:04.763Z,11.90
2019-04-26T20:37:36.248Z,12.10
2019-04-26T20:40:18.457Z,12.83
2019-04-26T20:42:51.203Z,12.53
2019-04-26T20:45:41.315Z,12.63
2019-04-26T20:48:13.287Z,11.67
2019-04-26T20:50:47.626Z,12.87
2019-04-26T20:53:21.928Z,11.83
2019-04-26T20:55:54.252Z,12.30
2019-04-26T20:58:27.700Z,11.80
2019-04-26T21:01:06.441Z,12.03
2019-04-26T21:03:46.651Z,12.27
2019-04-26T21:06:29.329Z,12.20
2019-04-26T21:09:06.481Z,13.60
2019-04-26T21:11:38.246Z,12.70
2019-04-26T21:18:12.405Z,13.13
2019-04-26T21:20:43.529Z,13.03
2019-04-26T21:23:16.822Z,13.90
2019-04-26T21:26:02.939Z,12.63
2019-04-26T21:29:03.326Z,13.30
2019-04-26T21:32:00.496Z,13.67
2019-04-26T21:34:44.908Z,13.87
2019-04-26T21:37:35.924Z,13.87
2019-04-26T21:40:16.898Z,14.47
2019-04-26T21:42:45.308Z,14.40
2019-04-26T21:45:15.817Z,14.17
2019-04-26T21:48:06.734Z,15.83
2019-04-26T21:50:50.355Z,15.03
2019-04-26T21:54:19.446Z,14.60
2019-04-26T21:57:10.254Z,15.77
2019-04-26T22:00:37.342Z,15.00
2019-04-26T22:03:59.195Z,15.00
2019-04-26T22:06:50.786Z,15.23
2019-04-26T22:09:36.824Z,15.10
2019-04-26T22:12:07.547Z,15.47
2019-04-26T22:14:39.625Z,15.60
2019-04-26T22:17:22.625Z,15.63
2019-04-26T22:20:12.987Z,16.50
2019-04-26T22:23:02.744Z,15.17
2019-04-26T22:25:39.656Z,16.70
2019-04-26T22:29:00.739Z,15.73
2019-04-26T22:31:47.249Z,15.23
2019-04-26T22:34:13.418Z,15.67
2019-04-26T22:37:37.312Z,15.80
2019-04-26T22:40:10.536Z,15.90
2019-04-26T22:42:46.892Z,16.13
2019-04-26T22:45:39.506Z,15.87
2019-04-26T22:48:23.211Z,17.03
2019-04-26T22:50:52.113Z,16.73
2019-04-26T22:53:27.832Z,17.67
2019-04-26T22:56:07.227Z,16.20
2019-04-26T22:58:35.454Z,17.07
2019-04-26T23:01:06.538Z,18.63
2019-04-26T23:03:50.229Z,18.60
2019-04-26T23:06:21.257Z,17.63
2019-04-26T23:09:03.420Z,18.90
2019-04-26T23:11:45.376Z,18.77
2019-04-26T23:14:41.309Z,18.07
2019-04-26T23:17:34.945Z,17.87
2019-04-26T23:20:45.099Z,18.17
2019-04-26T23:23:29.501Z,17.77
2019-04-26T23:25:58.302Z,18.53
2019-04-26T23:28:27.752Z,18.33
2019-04-26T23:31:01.431Z,18.40
2019-04-26T23:33:40.194Z,18.67
2019-04-26T23:39:12.121Z,19.43
2019-04-26T23:42:03.829Z,19.57
2019-04-26T23:44:33.113Z,17.80
2019-04-26T23:47:02.166Z,19.40
2019-04-26T23:49:30.554Z,19.60
2019-04-26T23:52:03.709Z,19.67
2019-04-26T23:54:35.969Z,18.53
2019-04-26T23:57:05.836Z,18.97
2019-04-26T23:59:55.754Z,20.23
